Time;durP1;ratioP1;P1;durP2;ratioP2;P2;SDS_P1;SDS_P2;PMS_P1;PMS_P2;Temp;Humidity;BMP_temperature;BMP_pressure;BME280_temperature;BME280_humidity;BME280_pressure;Samples;Min_cycle;Max_cycle;Signal;HPM_P1;HPM_P2
2021/03/05 00:02:17;;;;;;;81.38;51.83;;;204.90;1433.60;;;;;;4895647;29;20489;-73
2021/03/05 00:04:43;;;;;;;76.90;46.63;;;204.90;1433.60;;;;;;4910930;29;20039;-72
2021/03/05 00:07:09;;;;;;;77.10;49.33;;;204.80;1433.60;;;;;;4907678;29;20036;-72
2021/03/05 00:09:34;;;;;;;83.10;49.50;;;204.80;1459.20;;;;;;4904628;29;20455;-72
2021/03/05 00:12:00;;;;;;;80.82;48.83;;;204.80;1459.20;;;;;;4912580;29;20052;-72
2021/03/05 00:14:26;;;;;;;90.32;52.72;;;204.80;1459.20;;;;;;4925218;29;20024;-73
2021/03/05 00:16:51;;;;;;;73.55;47.42;;;204.80;1459.20;;;;;;4912805;29;20076;-72
2021/03/05 00:19:17;;;;;;;66.35;42.22;;;204.80;1484.80;;;;;;4909826;29;20028;-72
2021/03/05 00:21:43;;;;;;;63.80;37.13;;;204.90;1433.60;;;;;;4908087;29;20107;-72
2021/03/05 00:24:09;;;;;;;51.78;32.83;;;204.90;1433.60;;;;;;4914915;29;20055;-72
2021/03/05 00:26:34;;;;;;;55.72;34.35;;;204.90;1408.00;;;;;;4903297;29;20549;-72
2021/03/05 00:29:00;;;;;;;58.03;35.50;;;204.90;1408.00;;;;;;4907972;29;20031;-72
2021/03/05 00:31:26;;;;;;;58.88;35.97;;;204.90;1408.00;;;;;;4914116;29;20031;-73
2021/03/05 00:33:51;;;;;;;58.75;35.10;;;204.80;1433.60;;;;;;4910804;29;20040;-72
2021/03/05 00:36:17;;;;;;;53.17;34.30;;;204.80;1459.20;;;;;;4910980;29;20039;-72
2021/03/05 00:38:43;;;;;;;64.72;42.13;;;204.80;1459.20;;;;;;4909896;29;20024;-72
2021/03/05 00:41:08;;;;;;;66.68;42.10;;;180.00;1459.20;;;;;;4912505;29;20059;-72
2021/03/05 00:43:34;;;;;;;69.47;44.22;;;179.90;1459.20;;;;;;4918517;29;20470;-72
2021/03/05 00:46:00;;;;;;;66.18;40.72;;;179.80;1484.80;;;;;;4928377;29;20086;-72
2021/03/05 00:48:25;;;;;;;90.32;55.65;;;179.70;1484.80;;;;;;4905106;29;20035;-72
2021/03/05 00:50:51;;;;;;;156.88;98.15;;;179.60;1510.40;;;;;;4923246;29;20020;-71
2021/03/05 00:53:17;;;;;;;144.73;91.25;;;179.50;1536.00;;;;;;4919297;29;20103;-72
2021/03/05 00:55:42;;;;;;;112.95;64.22;;;179.50;1536.00;;;;;;4947766;29;20039;-71
2021/03/05 00:58:08;;;;;;;212.73;126.82;;;179.50;1536.00;;;;;;4925022;29;20035;-72
2021/03/05 01:00:34;;;;;;;178.30;106.85;;;179.50;1536.00;;;;;;4928999;29;20031;-72
2021/03/05 01:03:00;;;;;;;184.00;104.55;;;179.50;1536.00;;;;;;4924091;29;20051;-72
2021/03/05 01:05:26;;;;;;;154.82;95.38;;;179.40;1536.00;;;;;;4930534;29;20155;-72
2021/03/05 01:07:52;;;;;;;101.22;61.08;;;179.40;1510.40;;;;;;4917126;29;20024;-73
2021/03/05 01:10:18;;;;;;;94.13;56.63;;;179.50;1484.80;;;;;;4907228;29;20022;-73
2021/03/05 01:12:44;;;;;;;83.07;50.00;;;179.60;1459.20;;;;;;4935226;29;20043;-73
2021/03/05 01:15:10;;;;;;;68.68;42.40;;;179.60;1433.60;;;;;;4926459;29;20730;-72
2021/03/05 01:17:36;;;;;;;60.58;33.90;;;179.70;1433.60;;;;;;4922206;29;20028;-72
2021/03/05 01:20:11;;;;;;;56.65;34.83;;;179.80;1408.00;;;;;;4918505;29;20072;-72
2021/03/05 01:22:37;;;;;;;63.38;39.22;;;179.80;1408.00;;;;;;4918117;29;20035;-72
2021/03/05 01:25:04;;;;;;;59.47;40.03;;;179.70;1408.00;;;;;;4923935;29;20107;-72
2021/03/05 01:27:30;;;;;;;72.07;39.80;;;179.80;1408.00;;;;;;4928727;29;20079;-72
2021/03/05 01:29:56;;;;;;;53.55;36.35;;;179.90;1382.40;;;;;;4925013;29;20380;-74
2021/03/05 01:32:22;;;;;;;56.28;36.03;;;179.90;1382.40;;;;;;4919358;29;20409;-72
2021/03/05 01:34:47;;;;;;;54.33;34.15;;;179.90;1356.80;;;;;;4929825;29;20055;-73
2021/03/05 01:37:13;;;;;;;51.55;33.58;;;180.00;1356.80;;;;;;4917914;29;20036;-72
2021/03/05 01:39:39;;;;;;;56.33;36.17;;;180.00;1356.80;;;;;;4898928;29;20021;-72
2021/03/05 01:42:05;;;;;;;65.05;36.22;;;180.00;1356.80;;;;;;4935123;29;20027;-72
2021/03/05 01:44:30;;;;;;;110.25;62.92;;;180.00;1356.80;;;;;;4927299;29;20568;-72
2021/03/05 01:46:56;;;;;;;93.10;57.47;;;179.90;1356.80;;;;;;4926347;29;20428;-72
2021/03/05 01:49:22;;;;;;;64.97;39.67;;;179.80;1382.40;;;;;;4906873;29;20080;-72
2021/03/05 01:51:47;;;;;;;72.80;44.28;;;179.70;1408.00;;;;;;4920012;29;20031;-73
2021/03/05 01:54:13;;;;;;;112.68;65.32;;;179.70;1382.40;;;;;;4918675;29;20477;-72
2021/03/05 01:56:50;;;;;;;63.05;39.67;;;179.70;1408.00;;;;;;4917805;29;20021;-73
2021/03/05 01:59:20;;;;;;;67.50;41.33;;;179.70;1408.00;;;;;;4929171;29;20484;-71
2021/03/05 02:01:46;;;;;;;70.38;45.72;;;179.70;1408.00;;;;;;4917134;29;20036;-71
2021/03/05 02:04:13;;;;;;;86.63;52.63;;;179.60;1433.60;;;;;;4927458;29;20042;-71
2021/03/05 02:06:39;;;;;;;71.18;42.10;;;179.60;1459.20;;;;;;4920117;29;20036;-71
2021/03/05 02:09:06;;;;;;;72.97;44.63;;;179.50;1459.20;;;;;;4923926;29;20408;-71
2021/03/05 02:11:33;;;;;;;73.03;46.78;;;179.50;1459.20;;;;;;4916714;29;20489;-71
2021/03/05 02:14:04;;;;;;;57.83;34.72;;;179.50;1484.80;;;;;;4923777;29;20497;-71
2021/03/05 02:16:42;;;;;;;64.50;42.08;;;179.40;1459.20;;;;;;4919232;29;20024;-72
2021/03/05 02:19:07;;;;;;;55.65;34.47;;;179.40;1484.80;;;;;;4928636;29;20421;-72
2021/03/05 02:22:21;;;;;;;51.95;32.47;;;179.40;1484.80;;;;;;4924314;29;20036;-72
2021/03/05 02:25:11;;;;;;;59.42;38.90;;;179.40;1510.40;;;;;;4888149;29;20041;-72
2021/03/05 02:27:55;;;;;;;62.17;35.58;;;179.30;1510.40;;;;;;4895925;29;20092;-71
2021/03/05 02:30:39;;;;;;;62.78;39.03;;;179.30;1510.40;;;;;;4896621;29;20069;-72
2021/03/05 02:33:17;;;;;;;60.30;37.38;;;179.30;1510.40;;;;;;4902400;29;20024;-72
2021/03/05 02:35:44;;;;;;;65.07;38.17;;;179.20;1536.00;;;;;;4877128;29;20055;-72
2021/03/05 02:38:12;;;;;;;61.85;35.50;;;154.50;1561.60;;;;;;4886227;29;20025;-72
2021/03/05 02:40:41;;;;;;;56.40;35.53;;;179.20;1536.00;;;;;;4894042;29;20060;-72
2021/03/05 02:43:10;;;;;;;59.90;36.17;;;179.20;1536.00;;;;;;4884779;29;20052;-71
2021/03/05 02:45:39;;;;;;;62.10;37.03;;;179.20;1536.00;;;;;;4894694;29;20458;-72
2021/03/05 02:48:13;;;;;;;52.63;31.80;;;179.30;1510.40;;;;;;4889872;29;20413;-72
2021/03/05 02:50:45;;;;;;;55.20;34.72;;;179.30;1510.40;;;;;;4893364;29;20029;-72
2021/03/05 02:53:17;;;;;;;52.95;34.30;;;179.40;1510.40;;;;;;4882105;29;20021;-72
2021/03/05 02:55:50;;;;;;;62.75;41.85;;;179.40;1510.40;;;;;;4885684;29;20033;-72
2021/03/05 02:58:20;;;;;;;54.92;33.63;;;179.40;1510.40;;;;;;4876407;29;20032;-71
2021/03/05 03:00:46;;;;;;;49.05;30.25;;;179.40;1510.40;;;;;;4893724;29;20041;-72
2021/03/05 03:03:13;;;;;;;44.10;27.38;;;179.50;1484.80;;;;;;4906652;29;20031;-72
2021/03/05 03:05:40;;;;;;;43.42;26.02;;;179.50;1459.20;;;;;;4905611;29;20398;-72
2021/03/05 03:08:09;;;;;;;59.55;36.40;;;179.60;1459.20;;;;;;4916098;29;20465;-72
2021/03/05 03:10:35;;;;;;;42.30;27.17;;;179.70;1433.60;;;;;;4885683;29;20029;-72
2021/03/05 03:13:03;;;;;;;56.85;32.95;;;179.70;1433.60;;;;;;4913610;29;20022;-72
2021/03/05 03:15:34;;;;;;;53.05;31.20;;;179.80;1408.00;;;;;;4898598;29;20024;-72
2021/03/05 03:18:03;;;;;;;46.85;28.80;;;179.80;1408.00;;;;;;4899204;29;20107;-72
2021/03/05 03:20:30;;;;;;;29.95;21.95;;;179.90;1459.20;;;;;;4894041;29;20485;-72
2021/03/05 03:22:56;;;;;;;50.75;32.60;;;179.90;1382.40;;;;;;4898134;29;20040;-72
2021/03/05 03:25:24;;;;;;;34.30;22.13;;;179.90;1382.40;;;;;;4904648;29;20118;-72
2021/03/05 03:27:50;;;;;;;42.95;24.65;;;179.90;1408.00;;;;;;4896055;29;20055;-72
2021/03/05 03:30:17;;;;;;;37.10;24.80;;;179.80;1408.00;;;;;;4893834;29;20028;-72
2021/03/05 03:32:44;;;;;;;42.45;27.40;;;179.80;1408.00;;;;;;4904345;29;20505;-72
2021/03/05 03:35:12;;;;;;;37.88;24.17;;;179.80;1408.00;;;;;;4912695;29;20093;-72
2021/03/05 03:37:39;;;;;;;46.65;27.67;;;179.90;1408.00;;;;;;4915699;29;20087;-72
2021/03/05 03:40:13;;;;;;;48.00;26.30;;;179.90;1408.00;;;;;;4916073;29;20030;-72
2021/03/05 03:42:40;;;;;;;42.35;23.67;;;179.90;1382.40;;;;;;4898636;29;20397;-72
2021/03/05 03:45:08;;;;;;;36.35;21.90;;;179.90;1382.40;;;;;;4902205;29;20027;-73
2021/03/05 03:47:35;;;;;;;32.08;21.25;;;180.00;1382.40;;;;;;4902367;29;20111;-72
2021/03/05 03:50:03;;;;;;;39.17;23.42;;;180.00;1382.40;;;;;;4898928;29;20381;-72
2021/03/05 03:52:55;;;;;;;34.10;20.45;;;180.00;1382.40;;;;;;4915826;29;20024;-72
2021/03/05 03:55:21;;;;;;;35.03;21.65;;;180.00;1382.40;;;;;;4914170;29;20024;-72
2021/03/05 03:57:50;;;;;;;34.70;22.48;;;180.10;1382.40;;;;;;4915568;29;20028;-72
2021/03/05 04:00:17;;;;;;;39.80;23.05;;;180.10;1356.80;;;;;;4925794;29;20055;-72
2021/03/05 04:02:52;;;;;;;35.45;23.17;;;180.10;1356.80;;;;;;4901225;29;20451;-72
2021/03/05 04:05:27;;;;;;;36.00;23.50;;;180.10;1382.40;;;;;;4897985;29;20024;-72
2021/03/05 04:07:56;;;;;;;35.60;21.90;;;180.10;1356.80;;;;;;4919338;29;20117;-72
2021/03/05 04:10:22;;;;;;;34.03;22.65;;;180.10;1382.40;;;;;;4918464;29;21776;-72
2021/03/05 04:12:48;;;;;;;37.78;22.98;;;180.10;1382.40;;;;;;4915087;29;20055;-71
2021/03/05 04:15:16;;;;;;;33.88;22.38;;;180.10;1382.40;;;;;;4915834;29;20047;-72
2021/03/05 04:17:42;;;;;;;38.90;24.73;;;180.10;1382.40;;;;;;4929341;29;20076;-72
2021/03/05 04:20:12;;;;;;;34.97;22.33;;;180.10;1382.40;;;;;;4931369;29;20032;-72
2021/03/05 04:22:38;;;;;;;39.17;24.33;;;180.10;1356.80;;;;;;4919570;29;20108;-71
2021/03/05 04:25:04;;;;;;;45.50;23.77;;;180.10;1382.40;;;;;;4933198;29;20127;-71
2021/03/05 04:27:30;;;;;;;35.88;22.98;;;180.10;1382.40;;;;;;4941164;29;20111;-71
2021/03/05 04:29:56;;;;;;;36.00;23.02;;;180.10;1382.40;;;;;;4927412;29;20111;-71
2021/03/05 04:32:21;;;;;;;43.00;25.33;;;180.10;1382.40;;;;;;4933738;29;20028;-72
2021/03/05 04:34:47;;;;;;;50.08;28.05;;;180.10;1356.80;;;;;;4930471;29;20054;-72
2021/03/05 04:37:13;;;;;;;43.55;26.40;;;180.10;1382.40;;;;;;4922979;29;20036;-72
2021/03/05 04:39:38;;;;;;;40.45;25.63;;;180.00;1382.40;;;;;;4919348;29;20040;-72
2021/03/05 04:42:04;;;;;;;40.97;25.55;;;180.00;1356.80;;;;;;4928958;29;20035;-72
2021/03/05 04:44:30;;;;;;;43.45;24.13;;;180.00;1356.80;;;;;;4924723;29;20508;-72
2021/03/05 04:46:56;;;;;;;43.13;24.23;;;180.00;1356.80;;;;;;4937351;29;20036;-72
2021/03/05 04:49:21;;;;;;;38.63;23.83;;;180.00;1356.80;;;;;;4935162;29;20028;-72
2021/03/05 04:51:47;;;;;;;38.00;23.02;;;180.10;1356.80;;;;;;4917846;29;20028;-72
2021/03/05 04:54:13;;;;;;;40.28;22.00;;;180.10;1356.80;;;;;;4913918;29;20095;-72
2021/03/05 04:56:38;;;;;;;32.47;21.00;;;180.10;1356.80;;;;;;4909223;29;20084;-72
2021/03/05 04:59:04;;;;;;;33.47;21.27;;;180.10;1356.80;;;;;;4916315;29;20035;-72
2021/03/05 05:01:30;;;;;;;34.75;21.88;;;180.10;1356.80;;;;;;4913141;29;20024;-72
2021/03/05 05:03:56;;;;;;;33.70;21.65;;;180.10;1356.80;;;;;;4915602;29;20171;-72
2021/03/05 05:06:21;;;;;;;31.75;21.10;;;180.00;1356.80;;;;;;4904655;29;20033;-72
2021/03/05 05:08:47;;;;;;;42.13;23.85;;;180.00;1382.40;;;;;;4903033;29;20028;-72
2021/03/05 05:11:13;;;;;;;35.90;24.88;;;180.10;1356.80;;;;;;4912449;29;20020;-71
2021/03/05 05:13:39;;;;;;;39.05;22.75;;;180.00;1356.80;;;;;;4930164;29;20036;-71
2021/03/05 05:16:04;;;;;;;42.83;24.02;;;180.00;1382.40;;;;;;4914271;29;20548;-72
2021/03/05 05:18:30;;;;;;;37.75;22.35;;;180.00;1356.80;;;;;;4910792;29;20032;-72
2021/03/05 05:20:56;;;;;;;37.83;23.15;;;180.00;1356.80;;;;;;4914930;29;20039;-72
2021/03/05 05:23:22;;;;;;;44.22;25.20;;;180.00;1382.40;;;;;;4918017;29;20491;-72
2021/03/05 05:25:47;;;;;;;37.83;21.67;;;180.00;1356.80;;;;;;4914513;29;20024;-71
2021/03/05 05:28:13;;;;;;;35.88;22.13;;;180.10;1382.40;;;;;;4914496;29;20032;-72
2021/03/05 05:30:39;;;;;;;35.40;21.77;;;204.80;1382.40;;;;;;4902988;29;20048;-71
2021/03/05 05:33:05;;;;;;;37.47;21.65;;;204.80;1382.40;;;;;;4915665;29;20805;-72
2021/03/05 05:35:30;;;;;;;34.45;22.35;;;204.90;1382.40;;;;;;4912547;29;20063;-72
2021/03/05 05:37:56;;;;;;;44.70;26.25;;;204.90;1382.40;;;;;;4912194;29;20032;-72
2021/03/05 05:40:22;;;;;;;53.45;28.80;;;205.00;1382.40;;;;;;4910005;29;20024;-71
2021/03/05 05:42:48;;;;;;;51.28;32.25;;;205.00;1382.40;;;;;;4912299;29;20032;-72
2021/03/05 05:45:14;;;;;;;71.80;40.67;;;205.10;1382.40;;;;;;4912488;29;20020;-72
2021/03/05 05:47:42;;;;;;;75.03;44.85;;;205.00;1408.00;;;;;;4912503;29;20075;-72
2021/03/05 05:50:08;;;;;;;83.70;46.72;;;205.00;1408.00;;;;;;4913480;29;20028;-72
2021/03/05 05:52:35;;;;;;;67.22;40.17;;;205.00;1408.00;;;;;;4920468;29;20020;-72
2021/03/05 05:55:03;;;;;;;67.60;40.38;;;205.00;1433.60;;;;;;4914528;29;20068;-72
2021/03/05 05:57:30;;;;;;;55.70;37.17;;;205.10;1408.00;;;;;;4914166;29;20024;-72
2021/03/05 05:59:59;;;;;;;67.80;45.58;;;205.20;1408.00;;;;;;4917779;29;20032;-72
2021/03/05 06:02:27;;;;;;;77.85;49.13;;;205.30;1408.00;;;;;;4911135;29;20024;-72
2021/03/05 06:04:54;;;;;;;74.85;45.67;;;205.40;1382.40;;;;;;4908325;29;20036;-73
2021/03/05 06:07:23;;;;;;;55.65;30.35;;;205.50;1382.40;;;;;;4915705;29;20083;-72
2021/03/05 06:09:52;;;;;;;50.80;27.70;;;205.60;1382.40;;;;;;4914976;29;20099;-73
2021/03/05 06:12:19;;;;;;;53.30;29.23;;;205.50;1382.40;;;;;;4914301;29;20031;-73
2021/03/05 06:14:46;;;;;;;43.83;27.60;;;205.50;1382.40;;;;;;4914079;29;20457;-73
2021/03/05 06:17:12;;;;;;;55.38;29.05;;;205.40;1382.40;;;;;;4909119;29;20035;-73
2021/03/05 06:19:39;;;;;;;43.80;29.23;;;205.50;1382.40;;;;;;4910824;29;20797;-73
2021/03/05 06:22:19;;;;;;;45.50;28.45;;;205.40;1408.00;;;;;;4907867;29;20878;-72
2021/03/05 06:24:44;;;;;;;52.67;28.80;;;205.50;1408.00;;;;;;4916760;29;20047;-73
2021/03/05 06:27:11;;;;;;;55.40;31.35;;;205.50;1382.40;;;;;;4925359;29;20024;-72
2021/03/05 06:29:41;;;;;;;55.13;32.15;;;205.50;1408.00;;;;;;4918374;29;20568;-74
2021/03/05 06:32:08;;;;;;;59.30;32.60;;;205.60;1382.40;;;;;;4910992;29;20052;-73
2021/03/05 06:34:49;;;;;;;57.15;36.53;;;205.70;1408.00;;;;;;4908710;29;20048;-73
2021/03/05 06:37:17;;;;;;;66.60;37.10;;;205.70;1382.40;;;;;;4908542;29;20052;-73
2021/03/05 06:39:43;;;;;;;60.58;37.20;;;230.40;1356.80;;;;;;4909693;29;20024;-72
2021/03/05 06:42:12;;;;;;;68.35;37.70;;;230.40;1356.80;;;;;;4897649;29;20481;-73
2021/03/05 06:44:43;;;;;;;67.30;39.55;;;230.40;1331.20;;;;;;4910520;29;20074;-73
2021/03/05 06:47:17;;;;;;;55.92;38.33;;;230.50;1331.20;;;;;;4908487;29;20020;-73
2021/03/05 06:49:44;;;;;;;63.55;36.13;;;230.60;1331.20;;;;;;4896890;29;20028;-73
2021/03/05 06:52:12;;;;;;;64.15;36.10;;;230.70;1331.20;;;;;;4910981;29;20032;-73
2021/03/05 06:54:39;;;;;;;64.30;36.15;;;230.90;1305.60;;;;;;4918933;29;20031;-73
2021/03/05 06:57:06;;;;;;;64.85;40.53;;;231.00;1331.20;;;;;;4908733;29;20023;-72
2021/03/05 06:59:36;;;;;;;68.30;36.10;;;231.20;1305.60;;;;;;4916829;29;20036;-73
2021/03/05 07:02:03;;;;;;;55.92;35.13;;;231.20;1305.60;;;;;;4906513;29;20416;-72
2021/03/05 07:04:31;;;;;;;44.80;31.05;;;256.00;1305.60;;;;;;4921969;29;20472;-73
2021/03/05 07:07:02;;;;;;;46.50;30.45;;;256.10;1305.60;;;;;;4903421;29;20028;-73
2021/03/05 07:09:31;;;;;;;51.20;28.67;;;256.30;1280.00;;;;;;4917376;29;20413;-72
2021/03/05 07:11:57;;;;;;;44.70;24.83;;;256.40;1280.00;;;;;;4907505;29;20040;-73
2021/03/05 07:14:33;;;;;;;43.35;27.08;;;256.50;1254.40;;;;;;4914399;29;20016;-73
2021/03/05 07:17:00;;;;;;;45.13;28.08;;;256.60;1254.40;;;;;;4904206;29;20028;-73
2021/03/05 07:19:28;;;;;;;37.80;25.45;;;256.60;1254.40;;;;;;4899054;29;20032;-73
2021/03/05 07:21:54;;;;;;;65.30;42.00;;;256.60;1254.40;;;;;;4919455;29;20024;-73
2021/03/05 07:24:25;;;;;;;36.30;24.45;;;256.60;1254.40;;;;;;4911553;29;20103;-73
2021/03/05 07:26:53;;;;;;;43.47;25.00;;;256.70;1254.40;;;;;;4934167;29;20031;-73
2021/03/05 07:29:31;;;;;;;36.08;24.00;;;256.80;1254.40;;;;;;4921372;29;20024;-72
2021/03/05 07:32:02;;;;;;;37.42;25.05;;;256.90;1254.40;;;;;;4916105;29;20862;-71
2021/03/05 07:34:30;;;;;;;40.25;24.05;;;281.70;1280.00;;;;;;4910760;29;20809;-72
2021/03/05 07:36:59;;;;;;;41.63;26.65;;;281.70;1305.60;;;;;;4900363;29;20115;-72
2021/03/05 07:39:38;;;;;;;34.15;22.80;;;281.80;1280.00;;;;;;4912846;29;20377;-73
2021/03/05 07:42:04;;;;;;;40.95;23.55;;;282.00;1254.40;;;;;;4909242;29;20028;-72
2021/03/05 07:44:30;;;;;;;37.30;24.67;;;282.10;1280.00;;;;;;4909860;29;20473;-72
2021/03/05 07:46:56;;;;;;;34.83;23.33;;;282.30;1254.40;;;;;;4907769;29;20031;-73
2021/03/05 07:49:28;;;;;;;39.72;21.08;;;307.20;1254.40;;;;;;4911611;29;20021;-73
2021/03/05 07:51:56;;;;;;;29.27;21.08;;;307.40;1254.40;;;;;;4905629;29;20039;-72
2021/03/05 07:54:40;;;;;;;38.80;22.25;;;307.40;1228.80;;;;;;4895596;29;20083;-73
2021/03/05 07:57:18;;;;;;;40.22;24.00;;;307.70;1228.80;;;;;;4917524;29;20105;-73
2021/03/05 07:59:47;;;;;;;33.75;23.25;;;307.80;1228.80;;;;;;4910278;29;20035;-73
2021/03/05 08:02:14;;;;;;;29.88;21.38;;;308.00;1203.20;;;;;;4914363;29;20024;-72
2021/03/05 08:05:05;;;;;;;29.60;19.70;;;332.80;1228.80;;;;;;4914873;29;20076;-72
2021/03/05 08:07:32;;;;;;;26.13;18.23;;;333.10;1203.20;;;;;;4911112;29;20028;-73
2021/03/05 08:09:59;;;;;;;25.08;16.67;;;333.30;1177.60;;;;;;4915296;29;20103;-72
2021/03/05 08:12:38;;;;;;;27.52;18.33;;;333.50;1152.00;;;;;;4910963;29;20028;-73
2021/03/05 08:15:07;;;;;;;27.88;15.73;;;333.60;1152.00;;;;;;4911219;29;20023;-73
2021/03/05 08:17:38;;;;;;;24.80;14.68;;;358.40;1100.80;;;;;;4911934;29;20072;-72
2021/03/05 08:20:05;;;;;;;20.80;14.45;;;358.50;1075.20;;;;;;4899305;29;20032;-72
2021/03/05 08:22:31;;;;;;;24.15;14.75;;;358.60;1100.80;;;;;;4902819;29;20032;-73
2021/03/05 08:25:35;;;;;;;24.02;15.30;;;358.90;1075.20;;;;;;4916211;29;20083;-71
2021/03/05 08:28:03;;;;;;;20.63;13.38;;;358.90;1049.60;;;;;;4908871;29;20115;-72
2021/03/05 08:30:29;;;;;;;21.92;14.98;;;358.90;1024.00;;;;;;4918826;29;20058;-72
2021/03/05 08:32:58;;;;;;;21.63;14.40;;;358.90;998.40;;;;;;4927889;29;20477;-72
2021/03/05 08:35:30;;;;;;;18.40;11.85;;;358.90;998.40;;;;;;4899000;29;20056;-72
2021/03/05 08:38:06;;;;;;;29.20;18.20;;;359.10;972.80;;;;;;4933315;29;20032;-69
2021/03/05 08:40:44;;;;;;;;;;;359.10;972.80;;;;;;4921889;29;20398;-70
2021/03/05 08:43:09;;;;;;;25.63;17.98;;;384.00;947.20;;;;;;4917838;29;19962;-71
2021/03/05 08:45:43;;;;;;;19.85;15.98;;;359.30;921.60;;;;;;4916534;29;20119;-71
2021/03/05 08:48:09;;;;;;;18.17;12.55;;;384.00;921.60;;;;;;4924069;29;20059;-71
2021/03/05 08:50:37;;;;;;;26.50;13.80;;;384.00;896.00;;;;;;4917015;29;20028;-71
2021/03/05 08:53:11;;;;;;;34.33;19.05;;;384.00;896.00;;;;;;4907474;29;20030;-71
2021/03/05 08:55:39;;;;;;;23.20;14.48;;;384.10;896.00;;;;;;4916105;29;20052;-72
2021/03/05 08:58:05;;;;;;;44.63;26.23;;;384.20;896.00;;;;;;4921270;29;20370;-71
2021/03/05 09:00:34;;;;;;;26.13;17.40;;;384.20;896.00;;;;;;4911463;29;20043;-71
2021/03/05 09:03:04;;;;;;;20.48;13.57;;;384.50;896.00;;;;;;4914606;29;20075;-72
2021/03/05 09:05:34;;;;;;;17.48;10.95;;;384.60;896.00;;;;;;4918527;29;20123;-71
2021/03/05 09:08:01;;;;;;;20.98;10.98;;;384.80;870.40;;;;;;4912496;29;20086;-71
2021/03/05 09:10:47;;;;;;;40.05;19.83;;;409.60;896.00;;;;;;4919606;29;20111;-71
2021/03/05 09:13:15;;;;;;;20.70;11.33;;;409.60;896.00;;;;;;4909153;29;20040;-71
2021/03/05 09:15:45;;;;;;;21.13;10.40;;;409.80;896.00;;;;;;4915535;29;20039;-71
2021/03/05 09:18:14;;;;;;;19.70;9.50;;;409.90;870.40;;;;;;4919826;29;20361;-72
2021/03/05 09:20:44;;;;;;;22.30;9.27;;;410.10;844.80;;;;;;4900899;29;20024;-71
2021/03/05 09:23:29;;;;;;;21.58;9.48;;;410.40;844.80;;;;;;4916716;29;20028;-71
2021/03/05 09:25:57;;;;;;;27.05;10.65;;;435.50;819.20;;;;;;4916666;29;20036;-71
2021/03/05 09:28:25;;;;;;;18.60;11.07;;;435.80;819.20;;;;;;4916705;29;20370;-71
2021/03/05 09:30:54;;;;;;;25.55;10.60;;;435.60;819.20;;;;;;4917086;29;20020;-73
2021/03/05 09:33:27;;;;;;;16.73;8.70;;;435.40;844.80;;;;;;4913927;29;20074;-72
2021/03/05 09:35:58;;;;;;;13.23;8.98;;;435.70;844.80;;;;;;4916840;29;20032;-73
2021/03/05 09:38:24;;;;;;;25.63;10.90;;;435.90;819.20;;;;;;4914141;29;20579;-73
2021/03/05 09:40:50;;;;;;;15.70;8.95;;;435.50;819.20;;;;;;4915521;29;20111;-73
2021/03/05 09:43:17;;;;;;;26.48;10.07;;;435.90;819.20;;;;;;4909498;29;20115;-73
2021/03/05 09:45:52;;;;;;;17.85;9.45;;;460.80;819.20;;;;;;4914788;29;20175;-73
2021/03/05 09:48:30;;;;;;;20.13;10.20;;;460.80;819.20;;;;;;4909450;29;20024;-73
2021/03/05 09:51:03;;;;;;;18.92;8.85;;;461.00;844.80;;;;;;4913464;29;20501;-73
2021/03/05 09:53:34;;;;;;;15.77;9.30;;;460.80;819.20;;;;;;4906407;29;20021;-73
2021/03/05 09:56:02;;;;;;;16.48;10.13;;;461.10;819.20;;;;;;4911984;29;20080;-72
2021/03/05 09:58:29;;;;;;;18.45;9.30;;;461.60;793.60;;;;;;4931988;29;20039;-72
2021/03/05 10:00:55;;;;;;;32.17;11.52;;;461.70;819.20;;;;;;4911117;29;20028;-73
2021/03/05 10:03:22;;;;;;;32.50;12.75;;;461.70;844.80;;;;;;4911788;29;20393;-73
2021/03/05 10:05:48;;;;;;;32.67;12.30;;;461.20;870.40;;;;;;4906840;29;20036;-75
2021/03/05 10:08:28;;;;;;;25.88;12.30;;;461.00;870.40;;;;;;4910421;29;20528;-73
2021/03/05 10:11:07;;;;;;;21.45;11.20;;;461.30;870.40;;;;;;4907869;29;20483;-73
2021/03/05 10:13:48;;;;;;;20.08;11.77;;;461.70;844.80;;;;;;4922688;29;20025;-74
2021/03/05 10:16:35;;;;;;;21.65;11.85;;;486.80;819.20;;;;;;4907872;29;20028;-74
2021/03/05 10:19:03;;;;;;;23.70;11.48;;;486.40;844.80;;;;;;4912293;29;20032;-74
2021/03/05 10:21:29;;;;;;;25.58;12.15;;;486.70;844.80;;;;;;4909725;29;20111;-74
2021/03/05 10:23:56;;;;;;;20.58;12.13;;;486.50;844.80;;;;;;4910798;29;20103;-74
2021/03/05 10:26:27;;;;;;;24.73;13.02;;;486.50;844.80;;;;;;4909056;29;20028;-74
2021/03/05 10:29:02;;;;;;;20.90;11.20;;;487.00;819.20;;;;;;4905685;29;20111;-74
2021/03/05 10:31:49;;;;;;;32.63;12.80;;;512.00;793.60;;;;;;4899955;29;20421;-74
2021/03/05 10:34:31;;;;;;;21.75;12.60;;;487.10;819.20;;;;;;4915324;29;20413;-75
2021/03/05 10:37:00;;;;;;;20.15;13.23;;;486.70;844.80;;;;;;4911714;29;20409;-74
2021/03/05 10:39:32;;;;;;;27.23;12.73;;;486.50;844.80;;;;;;4910313;29;20437;-74
2021/03/05 10:42:00;;;;;;;19.15;12.90;;;486.50;844.80;;;;;;4912441;29;20111;-74
2021/03/05 10:44:28;;;;;;;18.95;13.15;;;461.50;870.40;;;;;;4920445;29;20548;-75
2021/03/05 10:46:58;;;;;;;24.08;12.88;;;461.40;896.00;;;;;;4923903;29;20044;-75
2021/03/05 10:49:24;;;;;;;25.95;12.85;;;461.30;896.00;;;;;;4912098;29;20430;-73
2021/03/05 10:51:50;;;;;;;25.00;13.65;;;461.00;947.20;;;;;;4904422;29;20023;-75
2021/03/05 10:54:16;;;;;;;26.10;13.98;;;461.10;921.60;;;;;;4909104;29;20035;-75
2021/03/05 10:56:42;;;;;;;25.65;14.77;;;460.90;947.20;;;;;;4909250;29;20777;-74
2021/03/05 10:59:11;;;;;;;23.08;14.13;;;461.10;947.20;;;;;;4910634;29;20540;-75
2021/03/05 11:01:37;;;;;;;24.38;14.50;;;461.60;921.60;;;;;;4912861;29;20091;-75
2021/03/05 11:04:02;;;;;;;25.80;15.20;;;461.30;921.60;;;;;;4907376;29;20032;-73
2021/03/05 11:06:29;;;;;;;26.13;14.82;;;461.60;947.20;;;;;;4908294;29;20036;-72
2021/03/05 11:08:54;;;;;;;21.85;13.20;;;486.40;921.60;;;;;;4912282;29;20036;-74
2021/03/05 11:11:20;;;;;;;20.88;13.77;;;461.70;921.60;;;;;;4907280;29;20028;-72
2021/03/05 11:13:46;;;;;;;23.77;13.77;;;486.50;896.00;;;;;;4898758;29;20039;-73
2021/03/05 11:16:12;;;;;;;22.58;13.60;;;486.90;870.40;;;;;;4909908;29;20136;-74
2021/03/05 11:18:38;;;;;;;23.23;13.82;;;487.10;896.00;;;;;;4914691;29;20056;-73
2021/03/05 11:21:04;;;;;;;25.38;14.27;;;487.00;870.40;;;;;;4907893;29;20060;-73
2021/03/05 11:23:30;;;;;;;24.67;13.95;;;486.70;896.00;;;;;;4912096;29;20027;-75
2021/03/05 11:25:55;;;;;;;26.02;15.75;;;486.70;896.00;;;;;;4912807;29;20028;-73
2021/03/05 11:28:21;;;;;;;21.73;15.50;;;486.80;896.00;;;;;;4907255;29;20509;-76
2021/03/05 11:30:47;;;;;;;19.55;15.35;;;487.30;870.40;;;;;;4909033;29;20843;-74
2021/03/05 11:33:12;;;;;;;26.55;15.23;;;512.30;844.80;;;;;;4916018;29;20036;-74
2021/03/05 11:35:38;;;;;;;23.02;14.48;;;512.30;844.80;;;;;;4910849;29;20036;-74
2021/03/05 11:38:04;;;;;;;22.60;14.25;;;512.50;819.20;;;;;;4903917;29;20481;-76
2021/03/05 11:40:30;;;;;;;21.38;14.55;;;512.10;844.80;;;;;;4909026;29;20047;-74
2021/03/05 11:42:56;;;;;;;22.95;14.68;;;487.10;870.40;;;;;;4910864;29;20092;-75
2021/03/05 11:45:22;;;;;;;23.80;14.60;;;486.50;896.00;;;;;;4914159;29;20032;-74
2021/03/05 11:47:48;;;;;;;24.23;16.40;;;461.70;921.60;;;;;;4896817;29;20441;-74
2021/03/05 11:50:14;;;;;;;22.73;15.30;;;486.60;921.60;;;;;;4906803;29;20036;-75
2021/03/05 11:52:40;;;;;;;24.55;16.17;;;486.70;896.00;;;;;;4909573;29;20024;-74
2021/03/05 11:55:08;;;;;;;26.67;16.52;;;486.60;896.00;;;;;;4910191;29;20028;-75
2021/03/05 11:57:42;;;;;;;23.63;15.43;;;486.40;921.60;;;;;;4924212;29;20031;-75
2021/03/05 12:00:08;;;;;;;26.58;17.23;;;487.00;896.00;;;;;;4907248;29;20024;-73
2021/03/05 12:02:35;;;;;;;30.90;18.50;;;486.80;896.00;;;;;;4925303;29;20512;-75
2021/03/05 12:05:00;;;;;;;28.48;16.33;;;487.00;896.00;;;;;;4927336;29;20130;-76
2021/03/05 12:07:26;;;;;;;26.60;16.42;;;486.60;896.00;;;;;;4922909;29;20114;-76
2021/03/05 12:09:53;;;;;;;25.23;16.85;;;461.70;921.60;;;;;;4921484;29;20465;-76